sensor_id;sensor_type;location;lat;lon;timestamp;pressure;altitude;pressure_sealevel;temperature;humidity
6565;BME280;3316;44.118;27.258;2023-02-19T00:02:21;100937.97;;;11.52;100.00
6565;BME280;3316;44.118;27.258;2023-02-19T00:04:47;100910.94;;;11.32;100.00
6565;BME280;3316;44.118;27.258;2023-02-19T00:07:12;100952.00;;;11.56;100.00
6565;BME280;3316;44.118;27.258;2023-02-19T00:09:38;100947.66;;;11.50;100.00
6565;BME280;3316;44.118;27.258;2023-02-19T00:12:03;100953.72;;;11.57;100.00
6565;BME280;3316;44.118;27.258;2023-02-19T00:14:29;100926.69;;;11.38;100.00
6565;BME280;3316;44.118;27.258;2023-02-19T00:16:54;100931.94;;;11.38;100.00
6565;BME280;3316;44.118;27.258;2023-02-19T00:19:20;100925.03;;;11.27;100.00
6565;BME280;3316;44.118;27.258;2023-02-19T00:21:46;100932.97;;;11.22;100.00
6565;BME280;3316;44.118;27.258;2023-02-19T00:24:13;100906.69;;;11.15;100.00
6565;BME280;3316;44.118;27.258;2023-02-19T00:26:39;100921.63;;;11.14;100.00
6565;BME280;3316;44.118;27.258;2023-02-19T00:29:05;100909.38;;;11.09;100.00
6565;BME280;3316;44.118;27.258;2023-02-19T00:31:33;100903.22;;;11.11;100.00
6565;BME280;3316;44.118;27.258;2023-02-19T00:34:01;100910.22;;;11.11;100.00
6565;BME280;3316;44.118;27.258;2023-02-19T00:36:28;100908.47;;;11.13;100.00
6565;BME280;3316;44.118;27.258;2023-02-19T00:38:54;100886.44;;;11.20;100.00
6565;BME280;3316;44.118;27.258;2023-02-19T00:41:21;100875.97;;;11.15;100.00
6565;BME280;3316;44.118;27.258;2023-02-19T00:43:53;100873.28;;;11.20;100.00
6565;BME280;3316;44.118;27.258;2023-02-19T00:46:36;100868.00;;;11.23;100.00
6565;BME280;3316;44.118;27.258;2023-02-19T00:49:03;100860.09;;;11.20;100.00
6565;BME280;3316;44.118;27.258;2023-02-19T00:51:31;100852.22;;;11.21;100.00
6565;BME280;3316;44.118;27.258;2023-02-19T00:53:57;100839.94;;;11.19;100.00
6565;BME280;3316;44.118;27.258;2023-02-19T00:56:22;100850.44;;;11.20;100.00
6565;BME280;3316;44.118;27.258;2023-02-19T00:58:48;100841.72;;;11.17;100.00
6565;BME280;3316;44.118;27.258;2023-02-19T01:01:14;100840.88;;;11.12;100.00
6565;BME280;3316;44.118;27.258;2023-02-19T01:03:41;100793.75;;;10.86;100.00
6565;BME280;3316;44.118;27.258;2023-02-19T01:06:08;100835.63;;;11.10;100.00
6565;BME280;3316;44.118;27.258;2023-02-19T01:08:34;100843.47;;;11.16;100.00
6565;BME280;3316;44.118;27.258;2023-02-19T01:11:02;100832.91;;;11.19;100.00
6565;BME280;3316;44.118;27.258;2023-02-19T01:13:28;100830.31;;;11.16;100.00
6565;BME280;3316;44.118;27.258;2023-02-19T01:16:05;100837.28;;;11.23;100.00
6565;BME280;3316;44.118;27.258;2023-02-19T01:18:31;100832.03;;;11.20;100.00
6565;BME280;3316;44.118;27.258;2023-02-19T01:20:56;100821.53;;;11.17;100.00
6565;BME280;3316;44.118;27.258;2023-02-19T01:23:22;100835.56;;;11.19;100.00
6565;BME280;3316;44.118;27.258;2023-02-19T01:25:47;100832.91;;;11.18;100.00
6565;BME280;3316;44.118;27.258;2023-02-19T01:28:13;100829.31;;;11.28;100.00
6565;BME280;3316;44.118;27.258;2023-02-19T01:30:38;100835.53;;;11.21;100.00
6565;BME280;3316;44.118;27.258;2023-02-19T01:33:05;100811.00;;;11.17;100.00
6565;BME280;3316;44.118;27.258;2023-02-19T01:35:30;100804.88;;;11.15;100.00
6565;BME280;3316;44.118;27.258;2023-02-19T01:37:56;100831.03;;;11.30;100.00
6565;BME280;3316;44.118;27.258;2023-02-19T01:40:22;100825.78;;;11.30;100.00
6565;BME280;3316;44.118;27.258;2023-02-19T01:42:47;100822.31;;;11.27;100.00
6565;BME280;3316;44.118;27.258;2023-02-19T01:45:38;100820.44;;;11.36;100.00
6565;BME280;3316;44.118;27.258;2023-02-19T01:50:48;100822.19;;;11.36;100.00
6565;BME280;3316;44.118;27.258;2023-02-19T01:53:19;100809.06;;;11.34;100.00
6565;BME280;3316;44.118;27.258;2023-02-19T01:55:47;100818.69;;;11.35;100.00
6565;BME280;3316;44.118;27.258;2023-02-19T01:58:15;100830.09;;;11.39;100.00
6565;BME280;3316;44.118;27.258;2023-02-19T02:00:40;100811.69;;;11.31;100.00
6565;BME280;3316;44.118;27.258;2023-02-19T02:03:06;100775.84;;;11.18;100.00
6565;BME280;3316;44.118;27.258;2023-02-19T02:05:56;100825.59;;;11.45;100.00
6565;BME280;3316;44.118;27.258;2023-02-19T02:08:24;100828.25;;;11.45;100.00
6565;BME280;3316;44.118;27.258;2023-02-19T02:11:16;100816.81;;;11.48;100.00
6565;BME280;3316;44.118;27.258;2023-02-19T02:13:43;100803.75;;;11.36;100.00
6565;BME280;3316;44.118;27.258;2023-02-19T02:16:35;100816.88;;;11.42;100.00
6565;BME280;3316;44.118;27.258;2023-02-19T02:22:13;100818.78;;;11.26;100.00
6565;BME280;3316;44.118;27.258;2023-02-19T02:24:57;100813.63;;;11.17;100.00
6565;BME280;3316;44.118;27.258;2023-02-19T02:33:10;100834.56;;;11.28;100.00
6565;BME280;3316;44.118;27.258;2023-02-19T02:35:42;100833.75;;;11.20;100.00
6565;BME280;3316;44.118;27.258;2023-02-19T02:38:10;100828.47;;;11.24;100.00
6565;BME280;3316;44.118;27.258;2023-02-19T02:40:41;100835.50;;;11.22;100.00
6565;BME280;3316;44.118;27.258;2023-02-19T02:43:07;100830.34;;;11.13;100.00
6565;BME280;3316;44.118;27.258;2023-02-19T02:45:33;100826.75;;;11.20;100.00
6565;BME280;3316;44.118;27.258;2023-02-19T02:51:03;100830.25;;;11.22;100.00
6565;BME280;3316;44.118;27.258;2023-02-19T02:53:34;100805.03;;;10.97;100.00
6565;BME280;3316;44.118;27.258;2023-02-19T02:56:22;100829.44;;;11.17;100.00
6565;BME280;3316;44.118;27.258;2023-02-19T02:58:49;100819.75;;;11.18;100.00
6565;BME280;3316;44.118;27.258;2023-02-19T03:01:24;100835.56;;;11.16;100.00
6565;BME280;3316;44.118;27.258;2023-02-19T03:06:59;100827.69;;;11.15;100.00
6565;BME280;3316;44.118;27.258;2023-02-19T03:09:33;100831.16;;;11.18;100.00
6565;BME280;3316;44.118;27.258;2023-02-19T03:12:08;100835.53;;;11.18;100.00
6565;BME280;3316;44.118;27.258;2023-02-19T03:14:54;100835.53;;;11.18;100.00
6565;BME280;3316;44.118;27.258;2023-02-19T03:17:46;100843.50;;;11.15;100.00
6565;BME280;3316;44.118;27.258;2023-02-19T03:20:33;100856.59;;;11.21;100.00
6565;BME280;3316;44.118;27.258;2023-02-19T03:23:01;100860.16;;;11.14;100.00
6565;BME280;3316;44.118;27.258;2023-02-19T03:25:31;100854.03;;;11.13;100.00
6565;BME280;3316;44.118;27.258;2023-02-19T03:28:20;100868.09;;;11.11;100.00
6565;BME280;3316;44.118;27.258;2023-02-19T03:31:08;100871.56;;;11.14;100.00
6565;BME280;3316;44.118;27.258;2023-02-19T03:33:37;100874.28;;;11.07;100.00
6565;BME280;3316;44.118;27.258;2023-02-19T03:36:07;100871.63;;;11.11;100.00
6565;BME280;3316;44.118;27.258;2023-02-19T03:38:42;100883.88;;;11.14;100.00
6565;BME280;3316;44.118;27.258;2023-02-19T03:44:12;100898.88;;;11.04;100.00
6565;BME280;3316;44.118;27.258;2023-02-19T03:46:51;100904.16;;;11.01;100.00
6565;BME280;3316;44.118;27.258;2023-02-19T03:52:04;100927.00;;;10.99;100.00
6565;BME280;3316;44.118;27.258;2023-02-19T03:57:54;100938.41;;;11.00;100.00
6565;BME280;3316;44.118;27.258;2023-02-19T04:03:01;100918.25;;;10.97;100.00
6565;BME280;3316;44.118;27.258;2023-02-19T04:05:32;100915.59;;;10.97;100.00
6565;BME280;3316;44.118;27.258;2023-02-19T04:08:13;100885.81;;;10.92;100.00
6565;BME280;3316;44.118;27.258;2023-02-19T04:10:40;100906.78;;;11.03;100.00
6565;BME280;3316;44.118;27.258;2023-02-19T04:13:11;100915.56;;;11.03;100.00
6565;BME280;3316;44.118;27.258;2023-02-19T04:15:42;100912.09;;;10.97;100.00
6565;BME280;3316;44.118;27.258;2023-02-19T04:18:15;100894.66;;;10.81;100.00
6565;BME280;3316;44.118;27.258;2023-02-19T04:20:44;100916.53;;;10.92;100.00
6565;BME280;3316;44.118;27.258;2023-02-19T04:23:11;100872.91;;;10.59;100.00
6565;BME280;3316;44.118;27.258;2023-02-19T04:25:41;100899.13;;;10.71;100.00
6565;BME280;3316;44.118;27.258;2023-02-19T04:28:08;100914.84;;;10.78;100.00
6565;BME280;3316;44.118;27.258;2023-02-19T04:30:33;100925.41;;;10.80;100.00
6565;BME280;3316;44.118;27.258;2023-02-19T04:32:59;100918.47;;;10.64;100.00
6565;BME280;3316;44.118;27.258;2023-02-19T04:35:24;100931.63;;;10.64;100.00
6565;BME280;3316;44.118;27.258;2023-02-19T04:37:49;100937.81;;;10.57;100.00
6565;BME280;3316;44.118;27.258;2023-02-19T04:40:15;100940.44;;;10.55;100.00
6565;BME280;3316;44.118;27.258;2023-02-19T04:42:40;100951.88;;;10.48;100.00
6565;BME280;3316;44.118;27.258;2023-02-19T04:45:06;100958.88;;;10.54;100.00
6565;BME280;3316;44.118;27.258;2023-02-19T04:47:32;100961.47;;;10.55;100.00
6565;BME280;3316;44.118;27.258;2023-02-19T04:49:57;100965.00;;;10.51;100.00
6565;BME280;3316;44.118;27.258;2023-02-19T04:52:23;100956.25;;;10.48;100.00
6565;BME280;3316;44.118;27.258;2023-02-19T04:54:48;100959.78;;;10.48;100.00
6565;BME280;3316;44.118;27.258;2023-02-19T04:57:14;100956.28;;;10.42;100.00
6565;BME280;3316;44.118;27.258;2023-02-19T04:59:39;100959.81;;;10.41;100.00
6565;BME280;3316;44.118;27.258;2023-02-19T05:02:04;100972.13;;;10.28;100.00
6565;BME280;3316;44.118;27.258;2023-02-19T05:04:30;100977.41;;;10.31;100.00
6565;BME280;3316;44.118;27.258;2023-02-19T05:06:55;100973.88;;;10.31;100.00
6565;BME280;3316;44.118;27.258;2023-02-19T05:09:21;100980.84;;;10.38;100.00
6565;BME280;3316;44.118;27.258;2023-02-19T05:11:46;100945.03;;;10.10;100.00
6565;BME280;3316;44.118;27.258;2023-02-19T05:14:12;100966.88;;;10.28;100.00
6565;BME280;3316;44.118;27.258;2023-02-19T05:16:37;100961.63;;;10.25;100.00
6565;BME280;3316;44.118;27.258;2023-02-19T05:19:03;100968.63;;;10.35;100.00
6565;BME280;3316;44.118;27.258;2023-02-19T05:21:28;100968.59;;;10.34;100.00
6565;BME280;3316;44.118;27.258;2023-02-19T05:23:54;100958.09;;;10.26;100.00
6565;BME280;3316;44.118;27.258;2023-02-19T05:26:21;100972.09;;;10.43;100.00
6565;BME280;3316;44.118;27.258;2023-02-19T05:28:49;100960.59;;;10.59;100.00
6565;BME280;3316;44.118;27.258;2023-02-19T05:31:15;100977.09;;;10.89;100.00
6565;BME280;3316;44.118;27.258;2023-02-19T05:33:41;100980.84;;;11.73;100.00
6565;BME280;3316;44.118;27.258;2023-02-19T05:36:10;100988.59;;;12.65;93.24
6565;BME280;3316;44.118;27.258;2023-02-19T05:38:37;101007.00;;;13.33;87.48
6565;BME280;3316;44.118;27.258;2023-02-19T05:43:32;101019.34;;;14.34;79.01
6565;BME280;3316;44.118;27.258;2023-02-19T05:45:57;101010.13;;;14.95;73.91
6565;BME280;3316;44.118;27.258;2023-02-19T05:48:23;101010.06;;;15.35;70.87
6565;BME280;3316;44.118;27.258;2023-02-19T05:50:48;101019.16;;;15.24;70.33
6565;BME280;3316;44.118;27.258;2023-02-19T05:53:14;101033.78;;;15.41;68.48
6565;BME280;3316;44.118;27.258;2023-02-19T05:55:39;101032.00;;;15.43;68.25
6565;BME280;3316;44.118;27.258;2023-02-19T05:58:04;101025.75;;;15.81;67.50
6565;BME280;3316;44.118;27.258;2023-02-19T06:00:32;101018.34;;;15.60;67.24
6565;BME280;3316;44.118;27.258;2023-02-19T06:02:57;101027.97;;;15.64;67.27
6565;BME280;3316;44.118;27.258;2023-02-19T06:05:23;101031.84;;;15.49;67.96
6565;BME280;3316;44.118;27.258;2023-02-19T06:07:48;101042.81;;;15.71;67.24
6565;BME280;3316;44.118;27.258;2023-02-19T06:10:15;101058.50;;;16.14;65.95
6565;BME280;3316;44.118;27.258;2023-02-19T06:12:40;101049.75;;;16.74;62.74
6565;BME280;3316;44.118;27.258;2023-02-19T06:15:06;101064.25;;;17.23;61.08
6565;BME280;3316;44.118;27.258;2023-02-19T06:17:32;101057.09;;;16.96;61.18
6565;BME280;3316;44.118;27.258;2023-02-19T06:19:58;101060.72;;;17.22;59.02
6565;BME280;3316;44.118;27.258;2023-02-19T06:22:23;101057.50;;;17.40;58.85
6565;BME280;3316;44.118;27.258;2023-02-19T06:24:49;101012.84;;;17.22;58.57
6565;BME280;3316;44.118;27.258;2023-02-19T06:27:15;101047.22;;;17.84;56.76
6565;BME280;3316;44.118;27.258;2023-02-19T06:29:40;101045.88;;;17.15;57.95
6565;BME280;3316;44.118;27.258;2023-02-19T06:32:06;101053.13;;;16.81;59.83
6565;BME280;3316;44.118;27.258;2023-02-19T06:34:32;101051.72;;;16.99;59.64
6565;BME280;3316;44.118;27.258;2023-02-19T06:36:58;101065.25;;;17.19;59.28
6565;BME280;3316;44.118;27.258;2023-02-19T06:39:24;101046.78;;;17.42;58.07
6565;BME280;3316;44.118;27.258;2023-02-19T06:41:50;101069.97;;;17.38;58.30
6565;BME280;3316;44.118;27.258;2023-02-19T06:44:15;101065.06;;;17.25;58.86
6565;BME280;3316;44.118;27.258;2023-02-19T06:46:41;101063.34;;;17.53;57.87
6565;BME280;3316;44.118;27.258;2023-02-19T06:49:06;101075.63;;;17.57;57.18
6565;BME280;3316;44.118;27.258;2023-02-19T06:51:32;101086.72;;;17.97;55.71
6565;BME280;3316;44.118;27.258;2023-02-19T06:53:58;101079.88;;;18.41;54.78
6565;BME280;3316;44.118;27.258;2023-02-19T06:56:31;101085.69;;;18.77;54.12
6565;BME280;3316;44.118;27.258;2023-02-19T06:58:59;101090.19;;;19.89;50.88
6565;BME280;3316;44.118;27.258;2023-02-19T07:01:26;101101.97;;;20.05;49.43
6565;BME280;3316;44.118;27.258;2023-02-19T07:03:52;101099.25;;;19.85;49.37
6565;BME280;3316;44.118;27.258;2023-02-19T07:06:19;101077.63;;;20.12;47.88
6565;BME280;3316;44.118;27.258;2023-02-19T07:08:45;101104.16;;;20.77;47.08
6565;BME280;3316;44.118;27.258;2023-02-19T07:11:10;101102.91;;;21.62;45.21
6565;BME280;3316;44.118;27.258;2023-02-19T07:13:36;101085.25;;;21.20;45.26
6565;BME280;3316;44.118;27.258;2023-02-19T07:16:05;101110.78;;;20.89;46.43
6565;BME280;3316;44.118;27.258;2023-02-19T07:18:32;101114.63;;;21.41;45.35
6565;BME280;3316;44.118;27.258;2023-02-19T07:21:05;101130.81;;;20.99;45.19
6565;BME280;3316;44.118;27.258;2023-02-19T07:23:31;101126.91;;;21.63;44.38
6565;BME280;3316;44.118;27.258;2023-02-19T07:25:57;101137.34;;;22.24;42.88
6565;BME280;3316;44.118;27.258;2023-02-19T07:28:22;101132.78;;;21.71;43.70
6565;BME280;3316;44.118;27.258;2023-02-19T07:30:48;101139.88;;;21.91;43.48
6565;BME280;3316;44.118;27.258;2023-02-19T07:33:13;101130.16;;;22.24;42.44
6565;BME280;3316;44.118;27.258;2023-02-19T07:35:48;101143.47;;;22.08;42.90
6565;BME280;3316;44.118;27.258;2023-02-19T07:38:19;101153.84;;;22.33;41.83
6565;BME280;3316;44.118;27.258;2023-02-19T07:40:55;101138.84;;;23.30;40.45
6565;BME280;3316;44.118;27.258;2023-02-19T07:43:23;101169.38;;;22.62;41.37
6565;BME280;3316;44.118;27.258;2023-02-19T07:45:48;101178.03;;;22.67;41.55
6565;BME280;3316;44.118;27.258;2023-02-19T07:48:14;101175.78;;;22.92;41.22
6565;BME280;3316;44.118;27.258;2023-02-19T07:50:39;101189.25;;;23.25;40.31
6565;BME280;3316;44.118;27.258;2023-02-19T07:53:05;101174.34;;;23.52;39.60
6565;BME280;3316;44.118;27.258;2023-02-19T07:55:31;101164.94;;;24.08;38.75
6565;BME280;3316;44.118;27.258;2023-02-19T07:57:58;101170.75;;;24.61;38.12
6565;BME280;3316;44.118;27.258;2023-02-19T08:00:24;101173.19;;;23.41;39.04
6565;BME280;3316;44.118;27.258;2023-02-19T08:02:53;101172.16;;;23.43;39.07
6565;BME280;3316;44.118;27.258;2023-02-19T08:05:27;101172.06;;;22.44;39.97
6565;BME280;3316;44.118;27.258;2023-02-19T08:07:54;101163.38;;;21.86;41.01
6565;BME280;3316;44.118;27.258;2023-02-19T08:10:20;101157.22;;;22.20;41.02
6565;BME280;3316;44.118;27.258;2023-02-19T08:13:04;101162.09;;;22.64;40.51
6565;BME280;3316;44.118;27.258;2023-02-19T08:16:09;101176.56;;;23.93;39.03
6565;BME280;3316;44.118;27.258;2023-02-19T08:18:33;101165.41;;;24.45;37.73
6565;BME280;3316;44.118;27.258;2023-02-19T08:20:59;101168.97;;;23.68;37.85
6565;BME280;3316;44.118;27.258;2023-02-19T08:23:26;101170.63;;;24.02;37.80
6565;BME280;3316;44.118;27.258;2023-02-19T08:25:52;101175.78;;;24.06;37.48
6565;BME280;3316;44.118;27.258;2023-02-19T08:28:18;101168.44;;;22.96;39.41
6565;BME280;3316;44.118;27.258;2023-02-19T08:30:46;101171.06;;;23.94;38.20
6565;BME280;3316;44.118;27.258;2023-02-19T08:33:13;101175.13;;;24.01;37.64
6565;BME280;3316;44.118;27.258;2023-02-19T08:35:39;101160.22;;;23.64;38.25
6565;BME280;3316;44.118;27.258;2023-02-19T08:38:06;101155.06;;;24.53;37.02
6565;BME280;3316;44.118;27.258;2023-02-19T08:40:32;101148.47;;;24.14;37.25
6565;BME280;3316;44.118;27.258;2023-02-19T08:43:05;101153.25;;;24.38;37.15
6565;BME280;3316;44.118;27.258;2023-02-19T08:45:31;101136.06;;;25.42;35.50
6565;BME280;3316;44.118;27.258;2023-02-19T08:47:57;101126.66;;;24.34;36.46
6565;BME280;3316;44.118;27.258;2023-02-19T08:50:23;101121.19;;;24.35;36.73
6565;BME280;3316;44.118;27.258;2023-02-19T08:52:49;101115.50;;;24.10;36.31
6565;BME280;3316;44.118;27.258;2023-02-19T08:55:14;101139.53;;;24.43;36.58
6565;BME280;3316;44.118;27.258;2023-02-19T08:57:40;101139.53;;;25.02;35.61
6565;BME280;3316;44.118;27.258;2023-02-19T09:00:06;101124.97;;;25.05;35.39
6565;BME280;3316;44.118;27.258;2023-02-19T09:02:33;101131.34;;;24.15;36.32
6565;BME280;3316;44.118;27.258;2023-02-19T09:04:58;101115.84;;;23.42;37.37
6565;BME280;3316;44.118;27.258;2023-02-19T09:07:24;101131.44;;;22.51;39.19
6565;BME280;3316;44.118;27.258;2023-02-19T09:09:50;101142.91;;;21.46;40.81
6565;BME280;3316;44.118;27.258;2023-02-19T09:12:15;101133.13;;;20.48;42.81
6565;BME280;3316;44.118;27.258;2023-02-19T09:14:40;101142.16;;;20.02;43.93
6565;BME280;3316;44.118;27.258;2023-02-19T09:17:07;101146.91;;;19.74;44.55
6565;BME280;3316;44.118;27.258;2023-02-19T09:19:33;101139.06;;;19.69;44.91
6565;BME280;3316;44.118;27.258;2023-02-19T09:21:59;101138.19;;;19.22;46.17
6565;BME280;3316;44.118;27.258;2023-02-19T09:24:24;101130.81;;;19.97;45.01
6565;BME280;3316;44.118;27.258;2023-02-19T09:26:52;101142.44;;;20.59;44.25
6565;BME280;3316;44.118;27.258;2023-02-19T09:29:18;101138.94;;;19.72;45.76
6565;BME280;3316;44.118;27.258;2023-02-19T09:31:44;101141.75;;;20.54;44.35
6565;BME280;3316;44.118;27.258;2023-02-19T09:34:09;101138.00;;;20.38;44.18
6565;BME280;3316;44.118;27.258;2023-02-19T09:36:39;101129.38;;;19.67;45.48
6565;BME280;3316;44.118;27.258;2023-02-19T09:39:06;101149.47;;;18.58;48.02
6565;BME280;3316;44.118;27.258;2023-02-19T09:41:43;101147.38;;;18.40;48.62
6565;BME280;3316;44.118;27.258;2023-02-19T09:44:28;101131.88;;;18.77;48.31
6565;BME280;3316;44.118;27.258;2023-02-19T09:46:55;101133.44;;;19.07;48.04
6565;BME280;3316;44.118;27.258;2023-02-19T09:52:31;101120.34;;;19.01;48.44
6565;BME280;3316;44.118;27.258;2023-02-19T09:55:02;101120.22;;;18.55;48.81
6565;BME280;3316;44.118;27.258;2023-02-19T09:57:34;101092.19;;;18.45;48.94
6565;BME280;3316;44.118;27.258;2023-02-19T10:00:28;101116.91;;;18.22;50.16
6565;BME280;3316;44.118;27.258;2023-02-19T10:03:10;101116.97;;;18.72;49.17
6565;BME280;3316;44.118;27.258;2023-02-19T10:05:37;101103.44;;;18.78;49.76
6565;BME280;3316;44.118;27.258;2023-02-19T10:08:06;101098.53;;;19.13;49.55
6565;BME280;3316;44.118;27.258;2023-02-19T10:10:35;101110.97;;;19.59;48.62
6565;BME280;3316;44.118;27.258;2023-02-19T10:13:21;101097.13;;;19.49;48.36
6565;BME280;3316;44.118;27.258;2023-02-19T10:15:49;101099.38;;;19.14;48.69
6565;BME280;3316;44.118;27.258;2023-02-19T10:18:17;101090.94;;;19.03;48.90
6565;BME280;3316;44.118;27.258;2023-02-19T10:20:45;101069.75;;;19.21;49.41
6565;BME280;3316;44.118;27.258;2023-02-19T10:23:13;101082.28;;;19.19;49.22
6565;BME280;3316;44.118;27.258;2023-02-19T10:25:44;101061.16;;;19.60;48.34
6565;BME280;3316;44.118;27.258;2023-02-19T10:28:14;101059.44;;;19.35;48.79
6565;BME280;3316;44.118;27.258;2023-02-19T10:30:42;101054.50;;;19.02;49.25
6565;BME280;3316;44.118;27.258;2023-02-19T10:33:11;101029.25;;;18.89;49.60
6565;BME280;3316;44.118;27.258;2023-02-19T10:35:57;101051.94;;;19.22;49.07
6565;BME280;3316;44.118;27.258;2023-02-19T10:38:29;101043.56;;;19.32;49.06
6565;BME280;3316;44.118;27.258;2023-02-19T10:41:16;101034.91;;;19.03;49.34
6565;BME280;3316;44.118;27.258;2023-02-19T10:46:24;101037.69;;;18.53;50.24
6565;BME280;3316;44.118;27.258;2023-02-19T10:48:54;101021.47;;;18.59;50.98
6565;BME280;3316;44.118;27.258;2023-02-19T10:51:33;101004.53;;;18.36;50.96
6565;BME280;3316;44.118;27.258;2023-02-19T10:56:30;101003.50;;;19.11;49.82
6565;BME280;3316;44.118;27.258;2023-02-19T11:01:57;100995.13;;;19.20;51.04
6565;BME280;3316;44.118;27.258;2023-02-19T11:04:24;100944.31;;;19.23;49.96
6565;BME280;3316;44.118;27.258;2023-02-19T11:06:50;101005.09;;;19.60;49.95
6565;BME280;3316;44.118;27.258;2023-02-19T11:09:48;101001.13;;;19.48;49.53
6565;BME280;3316;44.118;27.258;2023-02-19T11:12:24;100987.84;;;19.23;48.99
6565;BME280;3316;44.118;27.258;2023-02-19T11:14:51;100998.22;;;19.09;49.51
6565;BME280;3316;44.118;27.258;2023-02-19T11:17:23;100984.91;;;19.31;49.35
6565;BME280;3316;44.118;27.258;2023-02-19T11:19:53;100986.22;;;19.19;49.29
6565;BME280;3316;44.118;27.258;2023-02-19T11:22:42;100988.84;;;19.44;50.17
6565;BME280;3316;44.118;27.258;2023-02-19T11:28:02;100986.66;;;18.87;50.66
6565;BME280;3316;44.118;27.258;2023-02-19T11:30:33;100989.81;;;18.97;51.62
6565;BME280;3316;44.118;27.258;2023-02-19T11:33:25;100980.06;;;19.19;51.40
6565;BME280;3316;44.118;27.258;2023-02-19T11:36:15;100977.47;;;18.94;52.15
6565;BME280;3316;44.118;27.258;2023-02-19T11:38:44;100978.06;;;18.79;52.21
6565;BME280;3316;44.118;27.258;2023-02-19T11:58:46;100941.25;;;18.19;54.55
6565;BME280;3316;44.118;27.258;2023-02-19T12:06:42;100944.75;;;18.67;51.65
6565;BME280;3316;44.118;27.258;2023-02-19T12:14:39;100934.63;;;18.54;52.24
6565;BME280;3316;44.118;27.258;2023-02-19T12:25:39;100909.72;;;18.30;52.98
6565;BME280;3316;44.118;27.258;2023-02-19T12:28:32;100912.97;;;18.38;53.35
6565;BME280;3316;44.118;27.258;2023-02-19T12:42:12;100887.69;;;18.27;52.37
6565;BME280;3316;44.118;27.258;2023-02-19T12:44:45;100879.31;;;18.36;52.20
6565;BME280;3316;44.118;27.258;2023-02-19T12:47:21;100859.25;;;17.79;52.52
6565;BME280;3316;44.118;27.258;2023-02-19T12:50:01;100900.06;;;17.80;53.38
6565;BME280;3316;44.118;27.258;2023-02-19T12:52:36;100898.00;;;17.88;52.75
6565;BME280;3316;44.118;27.258;2023-02-19T12:57:49;100879.06;;;17.72;53.17
6565;BME280;3316;44.118;27.258;2023-02-19T13:00:32;100885.41;;;17.68;53.32
6565;BME280;3316;44.118;27.258;2023-02-19T13:03:10;100873.72;;;17.46;53.26
6565;BME280;3316;44.118;27.258;2023-02-19T13:13:44;100868.28;;;17.25;55.14
6565;BME280;3316;44.118;27.258;2023-02-19T13:16:17;100882.75;;;17.42;55.22
6565;BME280;3316;44.118;27.258;2023-02-19T13:18:50;100872.44;;;17.33;55.42
6565;BME280;3316;44.118;27.258;2023-02-19T13:21:19;100853.31;;;17.48;53.68
6565;BME280;3316;44.118;27.258;2023-02-19T13:24:29;100879.81;;;17.76;53.48
6565;BME280;3316;44.118;27.258;2023-02-19T13:30:08;100863.78;;;17.53;53.90
6565;BME280;3316;44.118;27.258;2023-02-19T13:38:11;100852.94;;;17.07;55.93
6565;BME280;3316;44.118;27.258;2023-02-19T13:40:48;100853.13;;;16.74;56.79
6565;BME280;3316;44.118;27.258;2023-02-19T13:43:24;100853.81;;;16.53;58.52
6565;BME280;3316;44.118;27.258;2023-02-19T13:46:01;100854.13;;;16.41;58.78
6565;BME280;3316;44.118;27.258;2023-02-19T13:48:32;100847.63;;;16.53;58.95
6565;BME280;3316;44.118;27.258;2023-02-19T14:19:45;100832.69;;;17.29;58.09
6565;BME280;3316;44.118;27.258;2023-02-19T14:25:34;100821.34;;;17.24;57.52
6565;BME280;3316;44.118;27.258;2023-02-19T14:33:36;100825.78;;;17.23;56.20
6565;BME280;3316;44.118;27.258;2023-02-19T14:38:43;100816.16;;;16.93;58.31
6565;BME280;3316;44.118;27.258;2023-02-19T14:41:12;100818.06;;;17.16;57.30
6565;BME280;3316;44.118;27.258;2023-02-19T14:43:40;100825.31;;;17.11;58.23
6565;BME280;3316;44.118;27.258;2023-02-19T14:46:14;100803.34;;;17.06;58.69
6565;BME280;3316;44.118;27.258;2023-02-19T14:48:45;100812.19;;;17.06;58.90
6565;BME280;3316;44.118;27.258;2023-02-19T14:51:15;100807.97;;;17.01;58.78
6565;BME280;3316;44.118;27.258;2023-02-19T14:53:45;100825.63;;;17.02;58.85
6565;BME280;3316;44.118;27.258;2023-02-19T14:56:32;100812.59;;;16.94;59.84
6565;BME280;3316;44.118;27.258;2023-02-19T15:01:36;100800.44;;;16.61;60.56
6565;BME280;3316;44.118;27.258;2023-02-19T15:04:03;100817.81;;;16.71;61.07
6565;BME280;3316;44.118;27.258;2023-02-19T15:06:29;100814.13;;;16.75;60.94
6565;BME280;3316;44.118;27.258;2023-02-19T15:09:03;100815.03;;;16.74;61.59
6565;BME280;3316;44.118;27.258;2023-02-19T15:11:30;100817.00;;;16.69;61.48
6565;BME280;3316;44.118;27.258;2023-02-19T15:14:01;100815.59;;;16.57;61.81
6565;BME280;3316;44.118;27.258;2023-02-19T15:16:29;100804.56;;;16.42;62.20
6565;BME280;3316;44.118;27.258;2023-02-19T15:18:57;100808.13;;;16.41;62.40
6565;BME280;3316;44.118;27.258;2023-02-19T15:21:28;100801.13;;;16.38;62.50
6565;BME280;3316;44.118;27.258;2023-02-19T15:23:59;100800.06;;;16.44;62.41
6565;BME280;3316;44.118;27.258;2023-02-19T15:26:37;100804.41;;;16.46;62.59
6565;BME280;3316;44.118;27.258;2023-02-19T15:29:24;100802.63;;;16.47;62.75
6565;BME280;3316;44.118;27.258;2023-02-19T15:31:53;100796.78;;;16.36;62.74
6565;BME280;3316;44.118;27.258;2023-02-19T15:34:24;100803.63;;;16.43;63.14
6565;BME280;3316;44.118;27.258;2023-02-19T15:37:00;100799.44;;;16.36;63.48
6565;BME280;3316;44.118;27.258;2023-02-19T15:42:01;100806.72;;;16.29;64.14
6565;BME280;3316;44.118;27.258;2023-02-19T15:44:33;100795.44;;;16.23;64.44
6565;BME280;3316;44.118;27.258;2023-02-19T15:47:19;100806.78;;;16.28;64.72
6565;BME280;3316;44.118;27.258;2023-02-19T15:49:57;100810.47;;;16.22;65.29